Lobo

Go HERE for most recent data if this page is not up to date.

Jump to table bottom
Date/Time Temp deg F RH % 24 Hr Snow (in) Snow Depth (in) H2O (in)
11/21 09:00 34.0 14 -0.6 16.6 0.00
11/21 08:00 29.1 31 -0.3 17.1 0.00
11/21 07:00 32.6 33 -0.4 17.1 0.00
11/21 06:00 32.7 25 -0.4 16.9 0.00
11/21 05:00 30.7 29 -0.4 17.1 0.00
11/21 04:00 31.3 30 -0.4 17.1 0.00
11/21 03:00 31.6 28 -0.4 17.1 0.00
11/21 02:00 32.2 26 -0.6 16.7 0.00
11/21 01:00 33.3 34 -0.5 16.9 0.00
11/21 00:00 32.1 27 -0.5 17.1 0.00
11/20 23:00 32.8 29 -0.5 16.9 0.00
11/20 22:00 33.8 31 -0.4 17.0 0.00
11/20 21:00 34.1 29 -0.5 16.9 0.00
11/20 20:00 33.4 27 -0.5 17.0 0.00
11/20 19:00 33.4 31 -0.5 17.0 0.00
11/20 18:00 34.1 32 -0.5 17.0 0.00
11/20 17:00 35.8 35 -0.5 16.9 0.00
11/20 16:00 37.1 33 -0.5 16.9 0.00
11/20 15:00 38.3 42 -0.6 16.7 0.00
11/20 14:00 38.9 34 -0.6 16.9 0.00
11/20 13:00 39.1 31 -0.7 16.6 0.00
11/20 12:00 36.4 32 -0.6 16.9 0.00
11/20 11:00 35.9 36 -0.5 17.2 0.00
11/20 10:00 34.2 40 -0.5 17.1 0.00
11/20 09:00 31.0 40 -0.4 17.5 0.00
11/20 08:00 27.0 47 -0.3 17.8 0.00
11/20 07:00 26.9 55 -0.2 17.9 0.00
11/20 06:00 26.4 54 -0.2 17.9 0.00
11/20 05:00 26.1 57 -0.2 18.1 0.00
11/20 04:00 25.8 59 -0.2 18.0 0.00
11/20 03:00 25.8 60 -0.2 18.1 0.00
11/20 02:00 25.5 63 -0.2 18.1 0.00
11/20 01:00 25.3 67 -0.1 18.3 0.00
11/20 00:00 25.2 67 -0.2 18.1 0.00
.